sensor_id;sensor_type;location;lat;lon;timestamp;pressure;altitude;pressure_sealevel;temperature;humidity
25420;BME280;13354;48.174;11.566;2023-02-04T00:01:24;96588.38;;;4.90;100.00
25420;BME280;13354;48.174;11.566;2023-02-04T00:03:49;96599.69;;;4.80;100.00
25420;BME280;13354;48.174;11.566;2023-02-04T00:06:16;96607.00;;;4.77;100.00
25420;BME280;13354;48.174;11.566;2023-02-04T00:08:41;96598.16;;;4.68;100.00
25420;BME280;13354;48.174;11.566;2023-02-04T00:11:07;96614.47;;;4.72;100.00
25420;BME280;13354;48.174;11.566;2023-02-04T00:13:32;96609.88;;;4.74;100.00
25420;BME280;13354;48.174;11.566;2023-02-04T00:15:57;96605.06;;;4.69;100.00
25420;BME280;13354;48.174;11.566;2023-02-04T00:18:23;96605.31;;;4.66;100.00
25420;BME280;13354;48.174;11.566;2023-02-04T00:20:48;96620.38;;;4.64;100.00
25420;BME280;13354;48.174;11.566;2023-02-04T00:23:13;96617.66;;;4.75;100.00
25420;BME280;13354;48.174;11.566;2023-02-04T00:25:39;96622.75;;;4.77;100.00
25420;BME280;13354;48.174;11.566;2023-02-04T00:28:04;96616.94;;;4.73;100.00
25420;BME280;13354;48.174;11.566;2023-02-04T00:30:30;96616.66;;;4.76;100.00
25420;BME280;13354;48.174;11.566;2023-02-04T00:32:56;96618.47;;;4.76;100.00
25420;BME280;13354;48.174;11.566;2023-02-04T00:35:24;96615.84;;;4.76;100.00
25420;BME280;13354;48.174;11.566;2023-02-04T00:37:50;96630.19;;;4.72;100.00
25420;BME280;13354;48.174;11.566;2023-02-04T00:40:16;96635.59;;;4.80;100.00
25420;BME280;13354;48.174;11.566;2023-02-04T00:42:41;96637.03;;;4.94;100.00
25420;BME280;13354;48.174;11.566;2023-02-04T00:45:08;96617.53;;;4.87;100.00
25420;BME280;13354;48.174;11.566;2023-02-04T00:47:33;96618.59;;;4.74;100.00
25420;BME280;13354;48.174;11.566;2023-02-04T00:49:59;96634.06;;;4.68;100.00
25420;BME280;13354;48.174;11.566;2023-02-04T00:52:24;96642.84;;;4.67;100.00
25420;BME280;13354;48.174;11.566;2023-02-04T00:54:49;96628.56;;;4.80;100.00
25420;BME280;13354;48.174;11.566;2023-02-04T00:57:15;96649.25;;;4.74;100.00
25420;BME280;13354;48.174;11.566;2023-02-04T00:59:40;96658.25;;;4.81;100.00
25420;BME280;13354;48.174;11.566;2023-02-04T01:02:05;96651.91;;;4.83;100.00
25420;BME280;13354;48.174;11.566;2023-02-04T01:04:31;96657.19;;;4.93;100.00
25420;BME280;13354;48.174;11.566;2023-02-04T01:06:56;96665.53;;;4.77;100.00
25420;BME280;13354;48.174;11.566;2023-02-04T01:09:22;96660.03;;;4.80;100.00
25420;BME280;13354;48.174;11.566;2023-02-04T01:11:48;96655.38;;;4.84;100.00
25420;BME280;13354;48.174;11.566;2023-02-04T01:14:13;96655.66;;;4.91;100.00
25420;BME280;13354;48.174;11.566;2023-02-04T01:16:38;96657.16;;;4.83;100.00
25420;BME280;13354;48.174;11.566;2023-02-04T01:19:04;96657.56;;;4.79;100.00
25420;BME280;13354;48.174;11.566;2023-02-04T01:21:29;96652.31;;;4.79;100.00
25420;BME280;13354;48.174;11.566;2023-02-04T01:23:55;96647.91;;;4.89;100.00
25420;BME280;13354;48.174;11.566;2023-02-04T01:26:20;96664.22;;;4.93;100.00
25420;BME280;13354;48.174;11.566;2023-02-04T01:28:46;96669.06;;;4.88;100.00
25420;BME280;13354;48.174;11.566;2023-02-04T01:31:12;96671.94;;;4.84;100.00
25420;BME280;13354;48.174;11.566;2023-02-04T01:33:37;96672.50;;;4.88;100.00
25420;BME280;13354;48.174;11.566;2023-02-04T01:36:03;96665.69;;;4.76;100.00
25420;BME280;13354;48.174;11.566;2023-02-04T01:38:28;96662.16;;;4.87;100.00
25420;BME280;13354;48.174;11.566;2023-02-04T01:40:54;96666.19;;;5.00;100.00
25420;BME280;13354;48.174;11.566;2023-02-04T01:43:20;96678.47;;;4.90;100.00
25420;BME280;13354;48.174;11.566;2023-02-04T01:45:46;96685.34;;;4.91;100.00
25420;BME280;13354;48.174;11.566;2023-02-04T01:48:12;96694.09;;;5.01;100.00
25420;BME280;13354;48.174;11.566;2023-02-04T01:50:45;96696.25;;;4.87;100.00
25420;BME280;13354;48.174;11.566;2023-02-04T01:53:10;96686.75;;;4.95;100.00
25420;BME280;13354;48.174;11.566;2023-02-04T01:55:35;96699.63;;;4.98;100.00
25420;BME280;13354;48.174;11.566;2023-02-04T01:58:01;96706.81;;;5.06;100.00
25420;BME280;13354;48.174;11.566;2023-02-04T02:00:31;96697.31;;;5.15;100.00
25420;BME280;13354;48.174;11.566;2023-02-04T02:02:58;96694.13;;;5.11;100.00
25420;BME280;13354;48.174;11.566;2023-02-04T02:05:31;96707.91;;;5.03;100.00
25420;BME280;13354;48.174;11.566;2023-02-04T02:08:02;96702.19;;;5.19;100.00
25420;BME280;13354;48.174;11.566;2023-02-04T02:10:28;96701.06;;;5.12;99.56
25420;BME280;13354;48.174;11.566;2023-02-04T02:12:54;96703.84;;;5.20;99.38
25420;BME280;13354;48.174;11.566;2023-02-04T02:15:20;96706.59;;;5.19;98.99
25420;BME280;13354;48.174;11.566;2023-02-04T02:17:46;96711.34;;;5.35;98.72
25420;BME280;13354;48.174;11.566;2023-02-04T02:20:14;96709.22;;;5.19;98.60
25420;BME280;13354;48.174;11.566;2023-02-04T02:22:46;96715.44;;;5.18;98.98
25420;BME280;13354;48.174;11.566;2023-02-04T02:25:14;96725.25;;;5.25;98.78
25420;BME280;13354;48.174;11.566;2023-02-04T02:27:40;96733.13;;;5.16;97.95
25420;BME280;13354;48.174;11.566;2023-02-04T02:30:07;96723.31;;;5.18;97.71
25420;BME280;13354;48.174;11.566;2023-02-04T02:32:35;96738.19;;;5.38;96.85
25420;BME280;13354;48.174;11.566;2023-02-04T02:35:00;96739.09;;;5.27;96.60
25420;BME280;13354;48.174;11.566;2023-02-04T02:37:26;96742.16;;;5.32;95.86
25420;BME280;13354;48.174;11.566;2023-02-04T02:39:52;96739.94;;;5.28;96.14
25420;BME280;13354;48.174;11.566;2023-02-04T02:42:18;96744.63;;;5.24;95.56
25420;BME280;13354;48.174;11.566;2023-02-04T02:44:44;96737.81;;;5.22;95.83
25420;BME280;13354;48.174;11.566;2023-02-04T02:47:14;96738.09;;;5.19;95.82
25420;BME280;13354;48.174;11.566;2023-02-04T02:49:41;96721.66;;;5.26;95.04
25420;BME280;13354;48.174;11.566;2023-02-04T02:52:12;96731.84;;;5.10;95.28
25420;BME280;13354;48.174;11.566;2023-02-04T02:54:38;96741.91;;;5.05;95.49
25420;BME280;13354;48.174;11.566;2023-02-04T02:57:11;96748.06;;;5.25;95.50
25420;BME280;13354;48.174;11.566;2023-02-04T02:59:37;96741.94;;;5.15;95.15
25420;BME280;13354;48.174;11.566;2023-02-04T03:02:03;96749.66;;;5.06;95.82
25420;BME280;13354;48.174;11.566;2023-02-04T03:04:32;96750.63;;;5.05;95.79
25420;BME280;13354;48.174;11.566;2023-02-04T03:06:59;96751.75;;;5.13;96.15
25420;BME280;13354;48.174;11.566;2023-02-04T03:09:26;96748.59;;;5.19;96.33
25420;BME280;13354;48.174;11.566;2023-02-04T03:11:52;96751.28;;;4.98;96.09
25420;BME280;13354;48.174;11.566;2023-02-04T03:14:18;96754.28;;;4.93;95.95
25420;BME280;13354;48.174;11.566;2023-02-04T03:16:44;96757.19;;;4.90;96.33
25420;BME280;13354;48.174;11.566;2023-02-04T03:19:11;96759.09;;;4.88;96.02
25420;BME280;13354;48.174;11.566;2023-02-04T03:21:36;96759.66;;;4.92;95.84
25420;BME280;13354;48.174;11.566;2023-02-04T03:24:03;96766.31;;;4.96;95.80
25420;BME280;13354;48.174;11.566;2023-02-04T03:26:29;96759.41;;;4.95;95.13
25420;BME280;13354;48.174;11.566;2023-02-04T03:28:54;96764.34;;;4.88;95.31
25420;BME280;13354;48.174;11.566;2023-02-04T03:31:20;96777.31;;;4.90;94.63
25420;BME280;13354;48.174;11.566;2023-02-04T03:33:45;96785.25;;;4.78;94.70
25420;BME280;13354;48.174;11.566;2023-02-04T03:36:11;96789.69;;;4.78;94.45
25420;BME280;13354;48.174;11.566;2023-02-04T03:38:37;96797.44;;;4.79;94.63
25420;BME280;13354;48.174;11.566;2023-02-04T03:41:02;96799.81;;;4.82;94.37
25420;BME280;13354;48.174;11.566;2023-02-04T03:43:28;96807.19;;;4.68;93.92
25420;BME280;13354;48.174;11.566;2023-02-04T03:45:53;96805.38;;;4.68;94.40
25420;BME280;13354;48.174;11.566;2023-02-04T03:48:18;96803.78;;;4.77;93.66
25420;BME280;13354;48.174;11.566;2023-02-04T03:50:44;96813.03;;;4.81;93.03
25420;BME280;13354;48.174;11.566;2023-02-04T03:53:10;96825.09;;;4.83;92.56
25420;BME280;13354;48.174;11.566;2023-02-04T03:55:35;96832.78;;;4.75;92.67
25420;BME280;13354;48.174;11.566;2023-02-04T03:58:01;96836.00;;;4.89;92.06
25420;BME280;13354;48.174;11.566;2023-02-04T04:00:27;96838.38;;;4.92;91.54
25420;BME280;13354;48.174;11.566;2023-02-04T04:02:52;96846.13;;;4.93;90.91
25420;BME280;13354;48.174;11.566;2023-02-04T04:05:18;96854.13;;;4.92;90.64
25420;BME280;13354;48.174;11.566;2023-02-04T04:07:43;96855.34;;;4.88;90.27
25420;BME280;13354;48.174;11.566;2023-02-04T04:10:09;96856.38;;;4.96;89.66
25420;BME280;13354;48.174;11.566;2023-02-04T04:12:35;96861.03;;;4.93;88.36
25420;BME280;13354;48.174;11.566;2023-02-04T04:15:00;96860.75;;;4.86;88.73
25420;BME280;13354;48.174;11.566;2023-02-04T04:17:25;96858.66;;;4.90;88.89
25420;BME280;13354;48.174;11.566;2023-02-04T04:19:51;96862.22;;;4.79;88.76
25420;BME280;13354;48.174;11.566;2023-02-04T04:22:16;96863.03;;;4.79;89.10
25420;BME280;13354;48.174;11.566;2023-02-04T04:24:41;96870.44;;;4.74;88.03
25420;BME280;13354;48.174;11.566;2023-02-04T04:27:07;96868.34;;;4.68;88.42
25420;BME280;13354;48.174;11.566;2023-02-04T04:29:32;96868.91;;;4.72;87.65
25420;BME280;13354;48.174;11.566;2023-02-04T04:31:58;96872.94;;;4.76;87.34
25420;BME280;13354;48.174;11.566;2023-02-04T04:34:23;96874.16;;;4.72;86.72
25420;BME280;13354;48.174;11.566;2023-02-04T04:36:48;96875.16;;;4.59;86.89
25420;BME280;13354;48.174;11.566;2023-02-04T04:39:13;96873.75;;;4.55;86.54
25420;BME280;13354;48.174;11.566;2023-02-04T04:41:39;96866.97;;;4.53;85.72
25420;BME280;13354;48.174;11.566;2023-02-04T04:44:04;96878.19;;;4.44;86.04
25420;BME280;13354;48.174;11.566;2023-02-04T04:46:30;96871.88;;;4.46;85.98
25420;BME280;13354;48.174;11.566;2023-02-04T04:48:55;96875.63;;;4.32;85.79
25420;BME280;13354;48.174;11.566;2023-02-04T04:51:20;96888.97;;;4.29;86.28
25420;BME280;13354;48.174;11.566;2023-02-04T04:53:46;96891.97;;;4.25;85.55
25420;BME280;13354;48.174;11.566;2023-02-04T04:56:11;96897.06;;;4.26;86.30
25420;BME280;13354;48.174;11.566;2023-02-04T04:58:36;96905.72;;;4.38;85.44
25420;BME280;13354;48.174;11.566;2023-02-04T05:01:01;96905.91;;;4.25;85.55
25420;BME280;13354;48.174;11.566;2023-02-04T05:03:27;96906.34;;;4.30;85.68
25420;BME280;13354;48.174;11.566;2023-02-04T05:05:52;96916.16;;;4.17;85.57
25420;BME280;13354;48.174;11.566;2023-02-04T05:08:18;96916.28;;;4.16;86.25
25420;BME280;13354;48.174;11.566;2023-02-04T05:10:45;96914.50;;;4.16;85.76
25420;BME280;13354;48.174;11.566;2023-02-04T05:13:11;96917.47;;;4.11;85.57
25420;BME280;13354;48.174;11.566;2023-02-04T05:15:36;96911.53;;;4.21;85.52
25420;BME280;13354;48.174;11.566;2023-02-04T05:18:02;96914.38;;;4.18;85.56
25420;BME280;13354;48.174;11.566;2023-02-04T05:20:28;96917.97;;;4.17;85.18
25420;BME280;13354;48.174;11.566;2023-02-04T05:22:53;96928.69;;;4.14;84.96
25420;BME280;13354;48.174;11.566;2023-02-04T05:25:20;96926.44;;;4.09;85.18
25420;BME280;13354;48.174;11.566;2023-02-04T05:27:47;96939.16;;;4.14;84.49
25420;BME280;13354;48.174;11.566;2023-02-04T05:30:13;96941.03;;;4.23;84.22
25420;BME280;13354;48.174;11.566;2023-02-04T05:32:39;96939.84;;;4.27;83.66
25420;BME280;13354;48.174;11.566;2023-02-04T05:35:05;96939.00;;;4.26;83.99
25420;BME280;13354;48.174;11.566;2023-02-04T05:37:30;96936.53;;;4.14;84.13
25420;BME280;13354;48.174;11.566;2023-02-04T05:39:56;96940.97;;;4.13;83.64
25420;BME280;13354;48.174;11.566;2023-02-04T05:42:21;96941.06;;;4.11;83.09
25420;BME280;13354;48.174;11.566;2023-02-04T05:44:46;96946.53;;;4.20;82.37
25420;BME280;13354;48.174;11.566;2023-02-04T05:47:12;96949.03;;;4.21;82.07
25420;BME280;13354;48.174;11.566;2023-02-04T05:49:37;96958.69;;;4.21;82.26
25420;BME280;13354;48.174;11.566;2023-02-04T05:52:03;96965.59;;;4.22;81.78
25420;BME280;13354;48.174;11.566;2023-02-04T05:54:29;96970.38;;;4.28;81.49
25420;BME280;13354;48.174;11.566;2023-02-04T05:56:54;96983.00;;;4.11;81.70
25420;BME280;13354;48.174;11.566;2023-02-04T05:59:19;96986.78;;;4.30;80.91
25420;BME280;13354;48.174;11.566;2023-02-04T06:01:44;96992.06;;;4.19;81.38
25420;BME280;13354;48.174;11.566;2023-02-04T06:04:10;96989.66;;;4.27;81.44
25420;BME280;13354;48.174;11.566;2023-02-04T06:06:35;96992.88;;;4.30;81.29
25420;BME280;13354;48.174;11.566;2023-02-04T06:09:01;97011.13;;;4.32;81.74
25420;BME280;13354;48.174;11.566;2023-02-04T06:11:26;97013.50;;;4.46;81.93
25420;BME280;13354;48.174;11.566;2023-02-04T06:13:52;97017.41;;;4.41;81.16
25420;BME280;13354;48.174;11.566;2023-02-04T06:16:17;97010.63;;;4.38;81.41
25420;BME280;13354;48.174;11.566;2023-02-04T06:18:42;97022.56;;;4.42;81.50
25420;BME280;13354;48.174;11.566;2023-02-04T06:21:08;97026.38;;;4.49;81.59
25420;BME280;13354;48.174;11.566;2023-02-04T06:23:33;97024.06;;;4.56;80.98
25420;BME280;13354;48.174;11.566;2023-02-04T06:26:00;97036.38;;;4.44;81.45
25420;BME280;13354;48.174;11.566;2023-02-04T06:28:26;97037.44;;;4.42;82.00
25420;BME280;13354;48.174;11.566;2023-02-04T06:30:51;97040.53;;;4.47;82.66
25420;BME280;13354;48.174;11.566;2023-02-04T06:33:16;97040.66;;;4.45;83.03
25420;BME280;13354;48.174;11.566;2023-02-04T06:35:41;97039.94;;;4.43;83.50
25420;BME280;13354;48.174;11.566;2023-02-04T06:38:07;97042.69;;;4.53;83.28
25420;BME280;13354;48.174;11.566;2023-02-04T06:40:32;97045.41;;;4.63;83.24
25420;BME280;13354;48.174;11.566;2023-02-04T06:42:57;97055.09;;;4.51;83.29
25420;BME280;13354;48.174;11.566;2023-02-04T06:45:23;97053.66;;;4.47;83.77
25420;BME280;13354;48.174;11.566;2023-02-04T06:47:48;97048.28;;;4.37;83.67
25420;BME280;13354;48.174;11.566;2023-02-04T06:50:14;97049.47;;;4.55;83.21
25420;BME280;13354;48.174;11.566;2023-02-04T06:52:44;97049.84;;;4.51;82.89
25420;BME280;13354;48.174;11.566;2023-02-04T06:55:11;97055.66;;;4.66;82.44
25420;BME280;13354;48.174;11.566;2023-02-04T06:57:36;97049.25;;;4.47;82.14
25420;BME280;13354;48.174;11.566;2023-02-04T07:00:02;97049.94;;;4.38;82.68
25420;BME280;13354;48.174;11.566;2023-02-04T07:02:27;97053.66;;;4.58;82.29
25420;BME280;13354;48.174;11.566;2023-02-04T07:04:53;97060.19;;;4.41;82.18
25420;BME280;13354;48.174;11.566;2023-02-04T07:07:18;97068.44;;;4.36;82.13
25420;BME280;13354;48.174;11.566;2023-02-04T07:09:43;97068.91;;;4.42;82.57
25420;BME280;13354;48.174;11.566;2023-02-04T07:12:09;97073.09;;;4.44;82.29
25420;BME280;13354;48.174;11.566;2023-02-04T07:14:34;97079.06;;;4.35;81.97
25420;BME280;13354;48.174;11.566;2023-02-04T07:16:59;97084.91;;;4.39;82.47
25420;BME280;13354;48.174;11.566;2023-02-04T07:19:25;97095.63;;;4.47;82.19
25420;BME280;13354;48.174;11.566;2023-02-04T07:21:50;97095.47;;;4.59;81.43
25420;BME280;13354;48.174;11.566;2023-02-04T07:24:18;97088.81;;;4.67;81.33
25420;BME280;13354;48.174;11.566;2023-02-04T07:26:44;97095.25;;;4.74;80.15
25420;BME280;13354;48.174;11.566;2023-02-04T07:29:09;97099.06;;;4.58;80.93
25420;BME280;13354;48.174;11.566;2023-02-04T07:31:34;97103.25;;;4.61;81.08
25420;BME280;13354;48.174;11.566;2023-02-04T07:33:59;97107.31;;;4.65;80.33
25420;BME280;13354;48.174;11.566;2023-02-04T07:36:25;97106.09;;;4.69;80.42
25420;BME280;13354;48.174;11.566;2023-02-04T07:38:50;97112.91;;;4.49;80.28
25420;BME280;13354;48.174;11.566;2023-02-04T07:41:16;97118.25;;;4.48;80.50
25420;BME280;13354;48.174;11.566;2023-02-04T07:43:41;97117.44;;;4.70;79.92
25420;BME280;13354;48.174;11.566;2023-02-04T07:46:06;97123.41;;;4.72;79.67
25420;BME280;13354;48.174;11.566;2023-02-04T07:48:32;97130.19;;;4.52;79.54
25420;BME280;13354;48.174;11.566;2023-02-04T07:50:57;97130.78;;;4.55;79.60
25420;BME280;13354;48.174;11.566;2023-02-04T07:53:22;97135.31;;;4.53;79.47
25420;BME280;13354;48.174;11.566;2023-02-04T07:55:48;97137.59;;;4.47;79.91
25420;BME280;13354;48.174;11.566;2023-02-04T07:58:13;97143.06;;;4.66;79.24
25420;BME280;13354;48.174;11.566;2023-02-04T08:00:38;97137.94;;;4.53;79.22
25420;BME280;13354;48.174;11.566;2023-02-04T08:03:04;97135.78;;;4.58;79.32
25420;BME280;13354;48.174;11.566;2023-02-04T08:05:29;97139.38;;;4.69;78.75
25420;BME280;13354;48.174;11.566;2023-02-04T08:07:55;97137.34;;;4.61;78.82
25420;BME280;13354;48.174;11.566;2023-02-04T08:10:20;97139.47;;;4.56;79.06
25420;BME280;13354;48.174;11.566;2023-02-04T08:12:45;97147.84;;;4.72;78.55
25420;BME280;13354;48.174;11.566;2023-02-04T08:15:11;97150.22;;;4.75;77.84
25420;BME280;13354;48.174;11.566;2023-02-04T08:17:36;97151.91;;;4.65;78.05
25420;BME280;13354;48.174;11.566;2023-02-04T08:20:02;97152.50;;;4.69;77.95
25420;BME280;13354;48.174;11.566;2023-02-04T08:22:27;97152.50;;;4.69;77.76
25420;BME280;13354;48.174;11.566;2023-02-04T08:24:53;97160.97;;;4.72;80.23
25420;BME280;13354;48.174;11.566;2023-02-04T08:27:19;97162.63;;;4.62;78.68
25420;BME280;13354;48.174;11.566;2023-02-04T08:29:44;97158.44;;;4.82;78.00
25420;BME280;13354;48.174;11.566;2023-02-04T08:32:10;97166.91;;;4.74;77.83
25420;BME280;13354;48.174;11.566;2023-02-04T08:34:37;97170.03;;;4.79;77.32
25420;BME280;13354;48.174;11.566;2023-02-04T08:37:02;97178.97;;;4.88;77.38
25420;BME280;13354;48.174;11.566;2023-02-04T08:39:28;97179.69;;;5.01;76.56
25420;BME280;13354;48.174;11.566;2023-02-04T08:41:53;97191.25;;;5.10;75.76
25420;BME280;13354;48.174;11.566;2023-02-04T08:44:19;97194.59;;;5.12;75.29
25420;BME280;13354;48.174;11.566;2023-02-04T08:46:44;97189.34;;;5.12;74.87
25420;BME280;13354;48.174;11.566;2023-02-04T08:49:09;97186.59;;;5.02;75.49
25420;BME280;13354;48.174;11.566;2023-02-04T08:51:35;97196.38;;;5.00;74.93
25420;BME280;13354;48.174;11.566;2023-02-04T08:54:00;97180.13;;;5.18;74.83
25420;BME280;13354;48.174;11.566;2023-02-04T08:56:25;97182.81;;;5.50;74.06
25420;BME280;13354;48.174;11.566;2023-02-04T08:58:51;97185.31;;;5.95;72.70
25420;BME280;13354;48.174;11.566;2023-02-04T09:01:17;97184.72;;;6.44;70.60
25420;BME280;13354;48.174;11.566;2023-02-04T09:03:43;97190.88;;;6.85;69.20
25420;BME280;13354;48.174;11.566;2023-02-04T09:06:09;97190.03;;;7.15;68.19
25420;BME280;13354;48.174;11.566;2023-02-04T09:08:34;97193.59;;;7.45;67.30
25420;BME280;13354;48.174;11.566;2023-02-04T09:11:00;97202.53;;;7.33;65.91
25420;BME280;13354;48.174;11.566;2023-02-04T09:13:25;97205.41;;;7.60;65.44
25420;BME280;13354;48.174;11.566;2023-02-04T09:15:51;97206.63;;;7.46;66.52
25420;BME280;13354;48.174;11.566;2023-02-04T09:18:17;97212.53;;;7.29;64.31
25420;BME280;13354;48.174;11.566;2023-02-04T09:20:46;97211.16;;;6.94;65.22
25420;BME280;13354;48.174;11.566;2023-02-04T09:23:12;97220.28;;;6.69;65.51
25420;BME280;13354;48.174;11.566;2023-02-04T09:25:38;97219.28;;;6.40;66.74
25420;BME280;13354;48.174;11.566;2023-02-04T09:28:04;97219.81;;;6.34;67.38
25420;BME280;13354;48.174;11.566;2023-02-04T09:30:30;97223.06;;;6.47;68.15
25420;BME280;13354;48.174;11.566;2023-02-04T09:32:55;97219.91;;;6.32;68.20
25420;BME280;13354;48.174;11.566;2023-02-04T09:35:20;97231.47;;;6.20;68.65
25420;BME280;13354;48.174;11.566;2023-02-04T09:37:46;97226.25;;;6.09;69.16
25420;BME280;13354;48.174;11.566;2023-02-04T09:40:16;97232.50;;;6.08;68.52
25420;BME280;13354;48.174;11.566;2023-02-04T09:42:43;97236.25;;;5.94;69.19
25420;BME280;13354;48.174;11.566;2023-02-04T09:45:20;97253.09;;;5.80;69.37
25420;BME280;13354;48.174;11.566;2023-02-04T09:47:48;97245.66;;;5.85;69.21
25420;BME280;13354;48.174;11.566;2023-02-04T09:50:15;97253.31;;;5.77;69.22
25420;BME280;13354;48.174;11.566;2023-02-04T09:52:42;97261.97;;;5.68;70.15
25420;BME280;13354;48.174;11.566;2023-02-04T09:55:13;97256.59;;;5.58;70.73
25420;BME280;13354;48.174;11.566;2023-02-04T09:57:38;97271.50;;;5.69;70.46
25420;BME280;13354;48.174;11.566;2023-02-04T10:00:14;97260.66;;;5.62;70.91
25420;BME280;13354;48.174;11.566;2023-02-04T10:02:39;97254.78;;;5.58;70.90
25420;BME280;13354;48.174;11.566;2023-02-04T10:05:05;97260.53;;;5.64;71.14
25420;BME280;13354;48.174;11.566;2023-02-04T10:07:31;97261.50;;;5.51;71.59
25420;BME280;13354;48.174;11.566;2023-02-04T10:09:57;97265.47;;;5.46;71.49
25420;BME280;13354;48.174;11.566;2023-02-04T10:12:23;97271.41;;;5.48;72.31
25420;BME280;13354;48.174;11.566;2023-02-04T10:14:49;97270.59;;;5.36;73.03
25420;BME280;13354;48.174;11.566;2023-02-04T10:17:19;97271.41;;;5.37;74.51
25420;BME280;13354;48.174;11.566;2023-02-04T10:19:46;97284.44;;;5.38;74.71
25420;BME280;13354;48.174;11.566;2023-02-04T10:22:20;97284.09;;;5.43;75.00
25420;BME280;13354;48.174;11.566;2023-02-04T10:24:45;97296.84;;;5.36;74.78
25420;BME280;13354;48.174;11.566;2023-02-04T10:27:12;97288.63;;;5.18;76.24
25420;BME280;13354;48.174;11.566;2023-02-04T10:29:40;97290.28;;;5.08;77.22
25420;BME280;13354;48.174;11.566;2023-02-04T10:32:25;97298.28;;;5.06;77.82
25420;BME280;13354;48.174;11.566;2023-02-04T10:34:56;97288.50;;;5.20;78.02
25420;BME280;13354;48.174;11.566;2023-02-04T10:37:22;97287.53;;;4.98;78.15
25420;BME280;13354;48.174;11.566;2023-02-04T10:39:47;97288.00;;;5.03;77.50
25420;BME280;13354;48.174;11.566;2023-02-04T10:42:24;97288.13;;;5.02;77.34
25420;BME280;13354;48.174;11.566;2023-02-04T10:44:49;97285.13;;;4.84;78.13
25420;BME280;13354;48.174;11.566;2023-02-04T10:47:20;97288.34;;;4.88;78.92
25420;BME280;13354;48.174;11.566;2023-02-04T10:50:10;97283.44;;;4.72;79.45
25420;BME280;13354;48.174;11.566;2023-02-04T10:52:41;97292.75;;;4.76;80.01
25420;BME280;13354;48.174;11.566;2023-02-04T10:55:13;97288.81;;;4.81;79.67
25420;BME280;13354;48.174;11.566;2023-02-04T10:57:42;97281.56;;;4.96;80.14
25420;BME280;13354;48.174;11.566;2023-02-04T11:00:24;97287.78;;;5.18;78.47
25420;BME280;13354;48.174;11.566;2023-02-04T11:03:10;97277.63;;;5.47;75.23
25420;BME280;13354;48.174;11.566;2023-02-04T11:05:36;97289.09;;;5.57;73.36
25420;BME280;13354;48.174;11.566;2023-02-04T11:08:19;97285.03;;;5.64;72.62
25420;BME280;13354;48.174;11.566;2023-02-04T11:10:44;97291.00;;;5.55;72.93
25420;BME280;13354;48.174;11.566;2023-02-04T11:13:21;97296.38;;;5.53;73.66
25420;BME280;13354;48.174;11.566;2023-02-04T11:15:49;97299.94;;;5.30;73.24
25420;BME280;13354;48.174;11.566;2023-02-04T11:20:47;97298.19;;;5.30;75.29
25420;BME280;13354;48.174;11.566;2023-02-04T11:23:15;97291.72;;;5.12;76.26
25420;BME280;13354;48.174;11.566;2023-02-04T11:25:41;97289.81;;;5.14;76.80
25420;BME280;13354;48.174;11.566;2023-02-04T11:28:25;97288.75;;;5.28;77.47
25420;BME280;13354;48.174;11.566;2023-02-04T11:31:12;97285.28;;;5.16;77.85
25420;BME280;13354;48.174;11.566;2023-02-04T11:33:40;97278.94;;;5.19;77.69
25420;BME280;13354;48.174;11.566;2023-02-04T11:36:14;97270.97;;;5.31;76.95
25420;BME280;13354;48.174;11.566;2023-02-04T11:38:48;97267.84;;;5.60;76.60
25420;BME280;13354;48.174;11.566;2023-02-04T11:41:24;97270.09;;;5.53;75.19
25420;BME280;13354;48.174;11.566;2023-02-04T11:43:52;97274.41;;;5.43;74.95
25420;BME280;13354;48.174;11.566;2023-02-04T11:46:19;97277.63;;;5.58;74.89
25420;BME280;13354;48.174;11.566;2023-02-04T11:48:44;97271.09;;;5.85;74.57
25420;BME280;13354;48.174;11.566;2023-02-04T11:51:15;97273.88;;;5.94;73.39
25420;BME280;13354;48.174;11.566;2023-02-04T11:53:41;97270.03;;;5.98;73.43
25420;BME280;13354;48.174;11.566;2023-02-04T11:56:16;97271.31;;;6.15;72.21
25420;BME280;13354;48.174;11.566;2023-02-04T11:58:41;97268.69;;;6.36;71.45
25420;BME280;13354;48.174;11.566;2023-02-04T12:01:18;97273.84;;;6.38;72.31
25420;BME280;13354;48.174;11.566;2023-02-04T12:03:49;97263.53;;;6.67;72.06
25420;BME280;13354;48.174;11.566;2023-02-04T12:06:23;97262.34;;;6.81;70.84
25420;BME280;13354;48.174;11.566;2023-02-04T12:08:49;97255.56;;;7.09;70.57
25420;BME280;13354;48.174;11.566;2023-02-04T12:11:26;97267.44;;;7.03;69.29
25420;BME280;13354;48.174;11.566;2023-02-04T12:13:54;97274.22;;;6.96;69.25
25420;BME280;13354;48.174;11.566;2023-02-04T12:16:20;97276.16;;;6.94;68.99
25420;BME280;13354;48.174;11.566;2023-02-04T12:18:46;97283.22;;;6.93;69.17
25420;BME280;13354;48.174;11.566;2023-02-04T12:21:12;97283.34;;;6.71;67.79
25420;BME280;13354;48.174;11.566;2023-02-04T12:23:38;97275.53;;;6.60;66.57
25420;BME280;13354;48.174;11.566;2023-02-04T12:26:04;97276.94;;;6.64;67.66
25420;BME280;13354;48.174;11.566;2023-02-04T12:28:29;97275.88;;;6.55;67.50
25420;BME280;13354;48.174;11.566;2023-02-04T12:30:55;97281.22;;;6.65;66.50
25420;BME280;13354;48.174;11.566;2023-02-04T12:33:20;97266.72;;;6.70;66.10
25420;BME280;13354;48.174;11.566;2023-02-04T12:35:47;97268.72;;;6.57;67.45
25420;BME280;13354;48.174;11.566;2023-02-04T12:38:13;97273.78;;;6.49;66.98
25420;BME280;13354;48.174;11.566;2023-02-04T12:40:39;97270.47;;;6.36;66.73
25420;BME280;13354;48.174;11.566;2023-02-04T12:43:04;97269.31;;;6.28;68.22
25420;BME280;13354;48.174;11.566;2023-02-04T12:45:30;97279.28;;;6.14;67.93
25420;BME280;13354;48.174;11.566;2023-02-04T12:47:56;97279.09;;;6.05;69.23
25420;BME280;13354;48.174;11.566;2023-02-04T12:50:21;97262.19;;;6.19;68.09
25420;BME280;13354;48.174;11.566;2023-02-04T12:52:55;97266.63;;;6.19;68.65
25420;BME280;13354;48.174;11.566;2023-02-04T12:55:22;97264.59;;;6.43;69.87
25420;BME280;13354;48.174;11.566;2023-02-04T12:57:48;97258.94;;;6.27;69.02